createdAt,value
2023-06-20T00:00:49.701Z,20.75
2023-06-20T00:03:20.805Z,20.73
2023-06-20T00:05:51.356Z,20.68
2023-06-20T00:08:24.226Z,20.66
2023-06-20T00:10:54.576Z,20.62
2023-06-20T00:13:27.895Z,20.61
2023-06-20T00:15:59.142Z,20.59
2023-06-20T00:18:30.830Z,20.55
2023-06-20T00:21:01.177Z,20.53
2023-06-20T00:23:34.131Z,20.50
2023-06-20T00:26:04.526Z,20.47
2023-06-20T00:28:34.778Z,20.41
2023-06-20T00:31:06.086Z,20.38
2023-06-20T00:33:38.174Z,20.32
2023-06-20T00:36:08.866Z,20.28
2023-06-20T00:38:51.991Z,20.25
2023-06-20T00:41:23.039Z,20.20
2023-06-20T00:43:55.055Z,20.16
2023-06-20T00:46:29.124Z,20.14
2023-06-20T00:48:59.856Z,20.09
2023-06-20T00:51:32.602Z,20.08
2023-06-20T00:54:06.535Z,20.02
2023-06-20T00:56:37.103Z,20.01
2023-06-20T00:59:07.414Z,20.00
2023-06-20T01:01:38.780Z,19.98
2023-06-20T01:04:10.871Z,19.98
2023-06-20T01:06:49.769Z,19.94
2023-06-20T01:09:30.366Z,19.91
2023-06-20T01:12:07.413Z,19.86
2023-06-20T01:14:46.230Z,19.83
2023-06-20T01:17:24.346Z,19.80
2023-06-20T01:20:09.444Z,19.80
2023-06-20T01:22:50.022Z,19.74
2023-06-20T01:25:40.063Z,19.73
2023-06-20T01:28:17.657Z,19.70
2023-06-20T01:30:53.499Z,19.69
2023-06-20T01:33:30.294Z,19.67
2023-06-20T01:36:03.357Z,19.63
2023-06-20T01:38:37.502Z,19.60
2023-06-20T01:41:09.066Z,19.56
2023-06-20T01:43:41.272Z,19.51
2023-06-20T01:46:13.719Z,19.47
2023-06-20T01:48:46.223Z,19.44
2023-06-20T01:51:18.816Z,19.42
2023-06-20T01:53:54.716Z,19.37
2023-06-20T01:56:28.972Z,19.33
2023-06-20T01:59:04.210Z,19.29
2023-06-20T02:01:36.667Z,19.28
2023-06-20T02:04:07.937Z,19.25
2023-06-20T02:06:39.628Z,19.28
2023-06-20T02:09:21.006Z,19.28
2023-06-20T02:11:52.256Z,19.25
2023-06-20T02:14:23.142Z,19.22
2023-06-20T02:16:54.845Z,19.18
2023-06-20T02:19:25.185Z,19.15
2023-06-20T02:21:57.917Z,19.14
2023-06-20T02:24:34.865Z,19.11
2023-06-20T02:27:07.856Z,19.11
2023-06-20T02:29:42.894Z,19.05
2023-06-20T02:32:17.801Z,19.01
2023-06-20T02:34:50.772Z,19.00
2023-06-20T02:37:21.155Z,18.96
2023-06-20T02:39:54.180Z,18.94
2023-06-20T02:42:26.709Z,18.93
2023-06-20T02:44:57.228Z,18.93
2023-06-20T02:47:38.821Z,18.93
2023-06-20T02:50:15.298Z,18.93
2023-06-20T02:52:50.162Z,18.96
2023-06-20T02:55:31.120Z,18.98
2023-06-20T02:58:04.536Z,19.00
2023-06-20T03:00:36.516Z,19.05
2023-06-20T03:03:12.539Z,19.06
2023-06-20T03:05:49.017Z,19.08
2023-06-20T03:08:21.679Z,19.17
2023-06-20T03:10:55.840Z,19.18
2023-06-20T03:13:26.704Z,19.23
2023-06-20T03:15:57.137Z,19.28
2023-06-20T03:18:30.800Z,19.33
2023-06-20T03:21:01.045Z,19.41
2023-06-20T03:23:31.354Z,19.50
2023-06-20T03:26:04.399Z,19.59
2023-06-20T03:28:34.760Z,19.60
2023-06-20T03:31:05.149Z,19.67
2023-06-20T03:33:35.404Z,19.72
2023-06-20T03:36:05.403Z,19.78
2023-06-20T03:38:35.710Z,19.74
2023-06-20T03:41:08.586Z,19.78
2023-06-20T03:43:38.818Z,19.85
2023-06-20T03:46:08.881Z,19.95
2023-06-20T03:48:40.182Z,20.11
2023-06-20T03:51:10.719Z,20.17
2023-06-20T03:53:40.988Z,20.25
2023-06-20T03:56:13.555Z,20.44
2023-06-20T03:58:43.902Z,20.50
2023-06-20T04:01:16.920Z,20.67
2023-06-20T04:03:47.266Z,20.90
2023-06-20T04:06:17.632Z,21.01
2023-06-20T04:08:47.949Z,21.15
2023-06-20T04:11:20.881Z,21.46
2023-06-20T04:13:51.115Z,22.00
2023-06-20T04:16:21.411Z,22.74
2023-06-20T04:18:51.673Z,23.29
2023-06-20T04:21:22.305Z,23.81
2023-06-20T04:23:52.621Z,24.01
2023-06-20T04:26:25.550Z,24.39
2023-06-20T04:28:55.768Z,24.98
2023-06-20T04:31:26.136Z,25.67
2023-06-20T04:33:58.406Z,26.19
2023-06-20T04:36:31.555Z,26.99
2023-06-20T04:39:01.823Z,27.51
2023-06-20T04:41:39.937Z,27.85
2023-06-20T04:44:10.193Z,27.59
2023-06-20T04:46:40.436Z,27.40
2023-06-20T04:49:11.408Z,27.40
2023-06-20T04:51:42.165Z,27.23
2023-06-20T04:54:12.525Z,27.35
2023-06-20T04:56:48.309Z,27.85
2023-06-20T04:59:20.999Z,28.23
2023-06-20T05:01:52.580Z,28.14
2023-06-20T05:04:23.301Z,28.17
2023-06-20T05:06:53.800Z,28.61
2023-06-20T05:09:24.166Z,29.06
2023-06-20T05:12:00.435Z,29.46
2023-06-20T05:14:34.658Z,29.93
2023-06-20T05:17:05.188Z,30.05
2023-06-20T05:19:36.087Z,30.30
2023-06-20T05:22:09.379Z,30.14
2023-06-20T05:24:42.126Z,30.52
2023-06-20T05:27:15.150Z,30.79
2023-06-20T05:29:45.420Z,30.78
2023-06-20T05:32:15.768Z,31.06
2023-06-20T05:34:46.316Z,31.33
2023-06-20T05:37:17.553Z,31.59
2023-06-20T05:39:47.832Z,32.00
2023-06-20T05:42:20.812Z,32.00
2023-06-20T05:44:52.025Z,31.68
2023-06-20T05:47:22.407Z,31.79
2023-06-20T05:49:52.751Z,31.99
2023-06-20T05:52:23.722Z,31.98
2023-06-20T05:54:56.946Z,31.82
2023-06-20T05:57:29.763Z,31.67
2023-06-20T06:00:00.269Z,31.66
2023-06-20T06:02:30.584Z,31.84
2023-06-20T06:05:01.177Z,31.77
2023-06-20T06:07:31.494Z,31.66
2023-06-20T06:10:01.928Z,31.41
2023-06-20T06:12:35.281Z,31.37
2023-06-20T06:15:06.283Z,31.28
2023-06-20T06:17:37.947Z,31.32
2023-06-20T06:20:17.604Z,31.49
2023-06-20T06:22:47.918Z,31.49
2023-06-20T06:25:18.874Z,31.50
2023-06-20T06:27:53.653Z,31.65
2023-06-20T06:30:26.465Z,31.71
2023-06-20T06:32:57.667Z,32.04
2023-06-20T06:35:28.350Z,32.57
2023-06-20T06:37:59.270Z,32.85
2023-06-20T06:40:29.862Z,32.90
2023-06-20T06:43:02.941Z,33.15
2023-06-20T06:45:36.749Z,33.12
2023-06-20T06:48:08.071Z,32.99
2023-06-20T06:50:38.442Z,32.47
2023-06-20T06:53:09.124Z,32.08
2023-06-20T06:55:39.460Z,31.94
2023-06-20T06:58:15.103Z,32.07
2023-06-20T07:00:45.545Z,32.00
2023-06-20T07:03:17.010Z,32.40
2023-06-20T07:05:47.464Z,32.71
2023-06-20T07:08:17.822Z,32.89
2023-06-20T07:10:48.939Z,33.25
2023-06-20T07:13:21.887Z,33.26
2023-06-20T07:15:55.432Z,33.05
2023-06-20T07:18:28.352Z,33.45
2023-06-20T07:21:01.118Z,33.98
2023-06-20T07:23:31.525Z,33.98
2023-06-20T07:26:01.823Z,34.24
2023-06-20T07:28:34.714Z,33.95
2023-06-20T07:31:05.426Z,33.66
2023-06-20T07:33:35.679Z,33.57
2023-06-20T07:36:05.960Z,33.55
2023-06-20T07:38:36.729Z,33.60
2023-06-20T07:41:07.007Z,33.58
2023-06-20T07:43:39.931Z,34.03
2023-06-20T07:46:10.352Z,34.32
2023-06-20T07:48:40.737Z,34.08
2023-06-20T07:51:11.122Z,33.89
2023-06-20T07:53:41.400Z,33.79
2023-06-20T07:56:14.406Z,33.91
2023-06-20T07:58:48.567Z,34.26
2023-06-20T08:01:19.205Z,34.41
2023-06-20T08:03:49.811Z,34.31
2023-06-20T08:06:20.121Z,34.20
2023-06-20T08:08:50.390Z,34.32
2023-06-20T08:11:24.303Z,34.55
2023-06-20T08:13:57.460Z,34.31
2023-06-20T08:16:27.969Z,34.11
2023-06-20T08:18:58.381Z,34.51
2023-06-20T08:21:28.744Z,34.68
2023-06-20T08:23:59.055Z,34.58
2023-06-20T08:26:29.315Z,34.82
2023-06-20T08:29:05.270Z,33.76
2023-06-20T08:31:38.013Z,32.92
2023-06-20T08:34:08.888Z,33.19
2023-06-20T08:36:39.188Z,33.81
2023-06-20T08:39:09.977Z,33.72
2023-06-20T08:41:40.363Z,33.47
2023-06-20T08:44:13.525Z,33.47
2023-06-20T08:46:43.973Z,33.45
2023-06-20T08:49:15.843Z,33.42
2023-06-20T08:51:51.081Z,33.92
2023-06-20T08:54:23.808Z,34.04
2023-06-20T08:56:54.253Z,34.42
2023-06-20T08:59:27.185Z,34.52
2023-06-20T09:01:57.573Z,34.82
2023-06-20T09:04:30.714Z,34.68
2023-06-20T09:07:02.744Z,34.05
2023-06-20T09:09:34.501Z,34.02
2023-06-20T09:12:04.749Z,34.34
2023-06-20T09:14:38.120Z,34.10
2023-06-20T09:17:12.627Z,34.21
2023-06-20T09:19:47.306Z,34.55
2023-06-20T09:22:22.791Z,34.72
2023-06-20T09:24:53.081Z,34.66
2023-06-20T09:27:23.519Z,34.78
2023-06-20T09:30:01.701Z,34.43
2023-06-20T09:32:37.405Z,34.30
2023-06-20T09:35:09.424Z,34.33
2023-06-20T09:37:41.051Z,34.36
2023-06-20T09:40:13.883Z,34.60
2023-06-20T09:42:45.397Z,34.75
2023-06-20T09:45:19.437Z,34.82
2023-06-20T09:47:49.758Z,34.91
2023-06-20T09:50:21.333Z,34.95
2023-06-20T09:53:01.451Z,34.17
2023-06-20T09:55:37.036Z,34.38
2023-06-20T09:58:08.432Z,34.35
2023-06-20T10:00:42.023Z,33.77
2023-06-20T10:03:14.883Z,33.58
2023-06-20T10:05:48.090Z,33.84
2023-06-20T10:08:20.277Z,34.17
2023-06-20T10:10:50.537Z,34.12
2023-06-20T10:13:22.994Z,34.37
2023-06-20T10:15:56.616Z,34.79
2023-06-20T10:18:40.101Z,34.69
2023-06-20T10:21:10.893Z,34.40
2023-06-20T10:23:41.940Z,34.50
2023-06-20T10:26:14.122Z,34.24
2023-06-20T10:28:45.487Z,34.53
2023-06-20T10:31:18.468Z,34.53
2023-06-20T10:33:49.721Z,33.97
2023-06-20T10:36:21.518Z,33.57
2023-06-20T10:39:13.052Z,33.38
2023-06-20T10:41:47.933Z,33.92
2023-06-20T10:44:32.203Z,34.50
2023-06-20T10:47:06.006Z,34.79
2023-06-20T10:49:36.609Z,34.44
2023-06-20T10:52:10.357Z,34.13
2023-06-20T10:54:40.655Z,34.38
2023-06-20T10:57:11.034Z,34.66
2023-06-20T10:59:43.692Z,34.69
2023-06-20T11:02:16.896Z,34.69
2023-06-20T11:04:48.985Z,34.79
2023-06-20T11:07:19.364Z,34.73
2023-06-20T11:09:49.612Z,34.91
2023-06-20T11:12:19.902Z,34.56
2023-06-20T11:14:50.347Z,34.17
2023-06-20T11:17:25.751Z,33.92
2023-06-20T11:19:56.131Z,33.74
2023-06-20T11:22:26.484Z,33.59
2023-06-20T11:24:56.708Z,33.99
2023-06-20T11:27:27.111Z,34.03
2023-06-20T11:29:59.272Z,34.08
2023-06-20T11:32:32.175Z,34.45
2023-06-20T11:35:04.899Z,34.81
2023-06-20T11:37:35.601Z,34.83
2023-06-20T11:40:10.570Z,35.14
2023-06-20T11:42:42.445Z,35.06
2023-06-20T11:45:14.161Z,35.12
2023-06-20T11:47:47.092Z,35.23
2023-06-20T11:50:27.094Z,34.75
2023-06-20T11:53:01.531Z,34.43
2023-06-20T11:55:51.651Z,34.47
2023-06-20T11:58:22.495Z,34.84
2023-06-20T12:01:05.557Z,35.01
2023-06-20T12:03:39.860Z,35.26
2023-06-20T12:06:28.756Z,35.23
2023-06-20T12:09:00.161Z,35.25
2023-06-20T12:11:31.235Z,34.92
2023-06-20T12:14:01.657Z,34.66
2023-06-20T12:16:33.232Z,34.94
2023-06-20T12:19:06.160Z,35.03
2023-06-20T12:21:39.866Z,35.06
2023-06-20T12:24:13.722Z,34.95
2023-06-20T12:26:45.382Z,35.21
2023-06-20T12:29:15.661Z,35.20
2023-06-20T12:31:45.956Z,35.06
2023-06-20T12:34:19.394Z,35.11
2023-06-20T12:36:49.732Z,34.95
2023-06-20T12:39:22.779Z,34.54
2023-06-20T12:41:53.287Z,34.08
2023-06-20T12:44:23.586Z,33.90
2023-06-20T12:46:54.200Z,33.87
2023-06-20T12:49:27.050Z,33.97
2023-06-20T12:51:57.379Z,33.94
2023-06-20T12:54:27.898Z,34.15
2023-06-20T12:56:58.547Z,34.05
2023-06-20T12:59:28.880Z,33.62
2023-06-20T13:01:59.323Z,34.01
2023-06-20T13:04:32.464Z,34.35
2023-06-20T13:07:02.974Z,34.81
2023-06-20T13:09:33.259Z,34.92
2023-06-20T13:12:03.694Z,34.68
2023-06-20T13:14:36.305Z,34.57
2023-06-20T13:17:06.763Z,34.66
2023-06-20T13:19:39.865Z,34.74
2023-06-20T13:22:10.439Z,34.89
2023-06-20T13:24:43.932Z,34.84
2023-06-20T13:27:14.414Z,34.68
2023-06-20T13:29:44.676Z,34.78
2023-06-20T13:32:15.065Z,34.82
2023-06-20T13:34:47.958Z,34.68
2023-06-20T13:37:18.252Z,34.41
2023-06-20T13:39:48.745Z,34.29
2023-06-20T13:42:19.162Z,34.27
2023-06-20T13:44:49.550Z,34.26
2023-06-20T13:47:20.103Z,34.41
2023-06-20T13:49:53.023Z,34.55
2023-06-20T13:52:24.371Z,34.66
2023-06-20T13:54:54.840Z,34.50
2023-06-20T13:57:25.210Z,34.45
2023-06-20T13:59:55.929Z,34.32
2023-06-20T14:02:26.396Z,34.37
2023-06-20T14:04:59.341Z,34.34
2023-06-20T14:07:31.365Z,34.17
2023-06-20T14:10:01.643Z,34.02
2023-06-20T14:12:31.986Z,33.96
2023-06-20T14:15:02.383Z,33.95
2023-06-20T14:17:32.803Z,33.76
2023-06-20T14:20:08.908Z,33.68
2023-06-20T14:22:39.324Z,33.68
2023-06-20T14:25:11.011Z,33.68
2023-06-20T14:27:41.504Z,33.34
2023-06-20T14:30:12.720Z,33.60
2023-06-20T14:32:43.058Z,33.85
2023-06-20T14:35:15.982Z,33.95
2023-06-20T14:37:46.330Z,33.93
2023-06-20T14:40:16.944Z,33.90
2023-06-20T14:42:48.046Z,33.94
2023-06-20T14:45:18.523Z,33.83
2023-06-20T14:47:51.820Z,33.96
2023-06-20T14:50:39.157Z,34.13
2023-06-20T14:53:16.318Z,34.20
2023-06-20T14:55:46.733Z,34.17
2023-06-20T14:58:16.993Z,34.17
2023-06-20T15:00:47.303Z,34.24
2023-06-20T15:03:17.826Z,34.20
2023-06-20T15:05:51.177Z,34.19
2023-06-20T15:08:21.502Z,33.83
2023-06-20T15:10:51.889Z,33.79
2023-06-20T15:13:22.346Z,33.71
2023-06-20T15:15:52.659Z,33.67
2023-06-20T15:18:23.015Z,33.33
2023-06-20T15:20:55.929Z,33.27
2023-06-20T15:23:26.222Z,33.10
2023-06-20T15:26:04.866Z,33.21
2023-06-20T15:28:35.163Z,33.24
2023-06-20T15:31:05.716Z,33.15
2023-06-20T15:33:36.196Z,33.22
2023-06-20T15:36:09.521Z,33.32
2023-06-20T15:38:40.046Z,33.42
2023-06-20T15:41:10.574Z,33.37
2023-06-20T15:43:43.984Z,33.35
2023-06-20T15:46:14.331Z,33.32
2023-06-20T15:48:59.573Z,33.22
2023-06-20T15:51:33.055Z,33.08
2023-06-20T15:54:03.813Z,32.99
2023-06-20T15:56:34.199Z,32.95
2023-06-20T15:59:04.499Z,32.97
2023-06-20T16:01:36.175Z,32.88
2023-06-20T16:04:06.667Z,32.91
2023-06-20T16:06:39.564Z,32.94
2023-06-20T16:09:10.204Z,32.85
2023-06-20T16:11:40.545Z,32.86
2023-06-20T16:14:10.969Z,32.67
2023-06-20T16:16:41.257Z,32.47
2023-06-20T16:19:11.566Z,32.47
2023-06-20T16:21:44.497Z,32.46
2023-06-20T16:24:14.841Z,32.47
2023-06-20T16:26:50.272Z,32.52
2023-06-20T16:29:20.631Z,32.48
2023-06-20T16:31:50.869Z,32.50
2023-06-20T16:34:24.003Z,32.49
2023-06-20T16:36:56.865Z,32.41
2023-06-20T16:39:27.166Z,32.42
2023-06-20T16:41:58.131Z,32.33
2023-06-20T16:44:31.101Z,32.18
2023-06-20T16:47:02.323Z,32.12
2023-06-20T16:49:35.132Z,32.13
2023-06-20T16:52:09.366Z,32.09
2023-06-20T16:54:39.694Z,32.01
2023-06-20T16:57:10.662Z,31.93
2023-06-20T16:59:41.190Z,31.81
2023-06-20T17:02:13.537Z,31.66
2023-06-20T17:04:46.744Z,31.53
2023-06-20T17:07:22.025Z,31.41
2023-06-20T17:09:52.391Z,31.26
2023-06-20T17:12:22.686Z,31.16
2023-06-20T17:14:53.056Z,31.05
2023-06-20T17:17:23.453Z,30.96
2023-06-20T17:19:54.028Z,30.88
2023-06-20T17:22:26.998Z,30.84
2023-06-20T17:24:57.288Z,30.83
2023-06-20T17:27:30.474Z,30.82
2023-06-20T17:30:02.044Z,30.77
2023-06-20T17:32:33.184Z,30.72
2023-06-20T17:35:03.630Z,30.71
2023-06-20T17:37:36.594Z,30.64
2023-06-20T17:40:09.925Z,30.60
2023-06-20T17:42:40.462Z,30.51
2023-06-20T17:45:12.114Z,30.46
2023-06-20T17:47:43.398Z,30.42
2023-06-20T17:50:22.857Z,30.32
2023-06-20T17:52:55.826Z,30.24
2023-06-20T17:55:26.152Z,30.13
2023-06-20T17:58:02.011Z,29.99
2023-06-20T18:00:33.671Z,29.83
2023-06-20T18:03:04.407Z,29.67
2023-06-20T18:05:35.403Z,29.53
2023-06-20T18:08:08.418Z,29.33
2023-06-20T18:10:39.362Z,29.13
2023-06-20T18:13:09.692Z,28.98
2023-06-20T18:15:42.079Z,28.83
2023-06-20T18:18:12.712Z,28.67
2023-06-20T18:20:43.036Z,28.54
2023-06-20T18:23:16.518Z,28.38
2023-06-20T18:25:47.121Z,28.27
2023-06-20T18:28:17.446Z,28.12
2023-06-20T18:30:48.247Z,27.98
2023-06-20T18:33:18.716Z,27.82
2023-06-20T18:35:49.059Z,27.67
2023-06-20T18:38:21.970Z,27.51
2023-06-20T18:40:52.283Z,27.38
2023-06-20T18:43:23.079Z,27.27
2023-06-20T18:45:53.591Z,27.11
2023-06-20T18:48:26.257Z,27.00
2023-06-20T18:50:56.764Z,26.89
2023-06-20T18:53:29.637Z,26.76
2023-06-20T18:55:59.934Z,26.63
2023-06-20T18:58:31.523Z,26.53
2023-06-20T19:01:02.983Z,26.41
2023-06-20T19:03:38.643Z,26.34
2023-06-20T19:06:09.257Z,26.27
2023-06-20T19:08:43.441Z,26.19
2023-06-20T19:11:16.075Z,26.10
2023-06-20T19:13:46.636Z,26.04
2023-06-20T19:16:17.980Z,26.04
2023-06-20T19:18:48.243Z,25.98
2023-06-20T19:21:18.829Z,25.90
2023-06-20T19:23:53.411Z,25.82
2023-06-20T19:26:26.878Z,25.75
2023-06-20T19:28:57.241Z,25.69
2023-06-20T19:31:27.680Z,25.61
2023-06-20T19:33:58.194Z,25.57
2023-06-20T19:36:28.470Z,25.51
2023-06-20T19:39:01.401Z,25.42
2023-06-20T19:41:31.778Z,25.36
2023-06-20T19:44:02.135Z,25.37
2023-06-20T19:46:32.899Z,25.40
2023-06-20T19:49:03.576Z,25.42
2023-06-20T19:51:35.204Z,25.40
2023-06-20T19:54:09.678Z,25.43
2023-06-20T19:56:40.014Z,25.45
2023-06-20T19:59:10.392Z,25.38
2023-06-20T20:01:40.821Z,25.35
2023-06-20T20:04:22.852Z,25.27
2023-06-20T20:06:53.154Z,25.19
2023-06-20T20:09:26.304Z,25.14
2023-06-20T20:11:56.779Z,25.04
2023-06-20T20:14:27.120Z,24.92
2023-06-20T20:16:58.443Z,24.90
2023-06-20T20:19:31.441Z,24.76
2023-06-20T20:22:01.902Z,24.62
2023-06-20T20:24:34.812Z,24.60
2023-06-20T20:27:05.682Z,24.53
2023-06-20T20:29:36.040Z,24.47
2023-06-20T20:32:06.798Z,24.44
2023-06-20T20:34:37.593Z,24.38
2023-06-20T20:37:08.773Z,24.39
2023-06-20T20:39:41.714Z,24.37
2023-06-20T20:42:13.247Z,24.34
2023-06-20T20:44:47.747Z,24.25
2023-06-20T20:47:18.602Z,24.18
2023-06-20T20:49:49.099Z,24.15
2023-06-20T20:52:22.008Z,24.06
2023-06-20T20:54:54.890Z,24.00
2023-06-20T20:57:28.010Z,23.98
2023-06-20T20:59:58.348Z,23.93
2023-06-20T21:02:28.748Z,23.96
2023-06-20T21:04:59.056Z,23.85
2023-06-20T21:07:29.341Z,23.79
2023-06-20T21:10:02.337Z,23.75
2023-06-20T21:12:32.677Z,23.66
2023-06-20T21:15:02.968Z,23.63
2023-06-20T21:17:33.385Z,23.61
2023-06-20T21:20:06.721Z,23.60
2023-06-20T21:22:40.505Z,23.51
2023-06-20T21:25:13.760Z,23.50
2023-06-20T21:27:44.234Z,23.46
2023-06-20T21:30:15.454Z,23.39
2023-06-20T21:32:45.987Z,23.34
2023-06-20T21:35:16.372Z,23.30
2023-06-20T21:37:46.674Z,23.26
2023-06-20T21:40:19.641Z,23.21
2023-06-20T21:42:49.925Z,23.21
2023-06-20T21:45:20.231Z,23.16
2023-06-20T21:47:52.796Z,23.13
2023-06-20T21:50:27.955Z,23.07
2023-06-20T21:52:58.471Z,23.03
2023-06-20T21:55:31.710Z,22.99
2023-06-20T21:58:04.514Z,22.94
2023-06-20T22:00:36.806Z,22.91
2023-06-20T22:03:09.136Z,22.85
2023-06-20T22:05:39.482Z,22.79
2023-06-20T22:08:09.792Z,22.74
2023-06-20T22:10:55.348Z,22.68
2023-06-20T22:13:29.845Z,22.66
2023-06-20T22:16:00.247Z,22.65
2023-06-20T22:18:30.649Z,22.62
2023-06-20T22:21:01.029Z,22.55
2023-06-20T22:23:31.374Z,22.54
2023-06-20T22:26:04.281Z,22.50
2023-06-20T22:28:34.570Z,22.48
2023-06-20T22:31:04.878Z,22.46
2023-06-20T22:33:35.155Z,22.40
2023-06-20T22:36:05.439Z,22.37
2023-06-20T22:38:36.706Z,22.31
2023-06-20T22:41:09.651Z,22.33
2023-06-20T22:43:40.080Z,22.29
2023-06-20T22:46:10.397Z,22.26
2023-06-20T22:48:40.982Z,22.23
2023-06-20T22:51:11.325Z,22.17
2023-06-20T22:53:42.579Z,22.16
2023-06-20T22:56:15.578Z,22.14
2023-06-20T22:58:47.250Z,22.15
2023-06-20T23:01:17.790Z,22.13
2023-06-20T23:03:48.371Z,22.09
2023-06-20T23:06:20.647Z,22.05
2023-06-20T23:08:50.955Z,22.02
2023-06-20T23:11:24.784Z,22.04
2023-06-20T23:13:55.125Z,21.96
2023-06-20T23:16:25.479Z,21.92
2023-06-20T23:18:56.699Z,21.87
2023-06-20T23:21:27.725Z,21.85
2023-06-20T23:23:58.105Z,21.83
2023-06-20T23:26:31.064Z,21.84
2023-06-20T23:29:01.636Z,21.83
2023-06-20T23:31:33.212Z,21.81
2023-06-20T23:34:04.543Z,21.79
2023-06-20T23:36:44.172Z,21.79
2023-06-20T23:39:16.772Z,21.75
2023-06-20T23:41:49.629Z,21.72
2023-06-20T23:44:20.434Z,21.70
2023-06-20T23:46:52.563Z,21.64
2023-06-20T23:49:22.989Z,21.62
2023-06-20T23:51:53.412Z,21.61
2023-06-20T23:54:24.377Z,21.59
2023-06-20T23:56:57.569Z,21.58
2023-06-20T23:59:28.151Z,21.56
